Observations for Trim Market St
| Time | AQI | Temp °C | Hum % | Pres Pa | CO μg/m³ | H₂S μg/m³ | NO μg/m³ | NO₂ μg/m³ | O₃ μg/m³ | SO₂ μg/m³ | PM1 μg/m³ | PM2.5 μg/m³ | PM10 μg/m³ |
|---|---|---|---|---|---|---|---|---|---|---|---|---|---|
| Friday 10 July 2026 | |||||||||||||
| 01:26 | 1 | 19.4 | 73 | 46,451 | 0 | 0 | 0 | 8.15 | 11.76 | 0 | 3.56 | 4.37 | 6.92 |
| 01:25 | 1 | 19.3 | 73 | 46,570 | 0 | 0 | 0 | 3.88 | 7.08 | 0 | 2.85 | 3.89 | 6.31 |
| 01:24 | 1 | 19.4 | 73 | 46,590 | 0 | 0 | 0 | 5.95 | 9.13 | 0 | 2.85 | 4.37 | 8.14 |
| 01:23 | 1 | 19.4 | 73 | 46,567 | 0 | 0 | 0.28 | 5.05 | 8.72 | 0 | 3.56 | 4.85 | 7.53 |
| 01:22 | 1 | 19.4 | 73 | 46,507 | 0 | 0 | 0 | 4.15 | 8.64 | 0 | 2.85 | 4.37 | 6.92 |
| 01:21 | 1 | 19.5 | 73 | 46,472 | 0 | 0 | 0 | 6.62 | 12.51 | 0 | 2.85 | 4.85 | 7.53 |
| 01:20 | 1 | 19.5 | 73 | 46,488 | 0 | 0 | 0 | 5.52 | 5.73 | 0 | 2.14 | 3.4 | 5.7 |
| 01:19 | 1 | 19.5 | 73 | 46,528 | 0 | 0 | 0 | 5.12 | 8.83 | 0 | 2.85 | 3.89 | 6.31 |
| 01:18 | 1 | 19.5 | 73 | 46,490 | 0 | 0 | 0 | 5.92 | 7.77 | 0 | 2.14 | 3.4 | 6.31 |
| 01:17 | 1 | 19.5 | 73 | 46,432 | 0 | 0 | 0 | 5.52 | 7.55 | 0 | 3.56 | 5.81 | 8.75 |
| 01:16 | 1 | 19.5 | 73 | 46,306 | 0 | 0 | 0 | 4.22 | 7.35 | 0 | 2.85 | 4.37 | 6.92 |
| 01:15 | 1 | 19.6 | 73 | 46,113 | 0 | 0 | 0 | 5.1 | 8.33 | 0 | 2.85 | 4.37 | 6.92 |
| 01:14 | 1 | 19.6 | 73 | 45,928 | 0 | 0 | 0 | 4.9 | 10.63 | 0 | 2.14 | 4.37 | 6.92 |
| 01:13 | 1 | 19.6 | 73 | 45,823 | 0 | 0 | 0 | 5 | 11.24 | 0 | 4.28 | 4.85 | 7.53 |
| 01:09 | 1 | 19.7 | 73 | 46,323 | 0 | 0 | 0 | 13.29 | 17.37 | 0 | 3.56 | 4.38 | 6.92 |
| 01:07 | 1 | 19.8 | 72 | 46,891 | 0 | 0 | 0 | 4.28 | 7.88 | 0 | 2.14 | 3.42 | 5.69 |
| 01:01 | 1 | 19.9 | 72 | 48,875 | 0 | 0 | 0 | 9.6 | 12.57 | 0 | 2.14 | 3.44 | 6.3 |
| 00:58 | 1 | 19.9 | 72 | 49,388 | 0 | 0 | 0 | 4.72 | 13.67 | 0 | 3.56 | 3.93 | 6.3 |
| 00:55 | 1 | 20 | 72 | 49,741 | 0 | 0 | 0 | 6.12 | 9.82 | 0 | 2.85 | 4.91 | 7.53 |
| 00:53 | 1 | 20 | 72 | 50,270 | 0 | 0 | 0 | 7.54 | 10.66 | 0 | 2.14 | 3.95 | 6.29 |